Time;durP1;ratioP1;P1;durP2;ratioP2;P2;SDS_P1;SDS_P2;PMS_P1;PMS_P2;Temp;Humidity;BMP_temperature;BMP_pressure;BME280_temperature;BME280_humidity;BME280_pressure;Samples;Min_cycle;Max_cycle;Signal;HPM_P1;HPM_P2
2021/10/22 00:00:46;;;;;;;10.85;3.15;;;11.10;99.90;;;;;;4970703;28;20224;-64
2021/10/22 00:03:13;;;;;;;8.93;3.88;;;11.00;99.90;;;;;;4976656;28;20800;-64
2021/10/22 00:05:40;;;;;;;7.10;2.95;;;11.00;99.90;;;;;;4978158;28;20536;-63
2021/10/22 00:08:07;;;;;;;8.63;5.05;;;11.00;99.90;;;;;;4982747;28;20233;-64
2021/10/22 00:10:34;;;;;;;7.82;3.35;;;11.00;99.90;;;;;;4990578;28;20254;-64
2021/10/22 00:13:01;;;;;;;18.35;9.93;;;11.00;99.90;;;;;;5005517;28;20599;-64
2021/10/22 00:15:28;;;;;;;5.90;2.45;;;11.00;99.90;;;;;;5022577;28;20863;-64
2021/10/22 00:17:56;;;;;;;9.15;5.15;;;11.00;99.90;;;;;;5010481;28;20897;-64
2021/10/22 00:20:24;;;;;;;19.02;8.15;;;11.00;99.90;;;;;;5010543;28;20230;-64
2021/10/22 00:22:51;;;;;;;6.35;3.50;;;10.90;99.90;;;;;;5023355;28;20559;-64
2021/10/22 00:25:20;;;;;;;14.32;4.60;;;11.00;99.90;;;;;;5018485;28;20719;-64
2021/10/22 00:27:48;;;;;;;7.18;2.70;;;11.00;99.90;;;;;;5017700;28;20230;-64
2021/10/22 00:30:15;;;;;;;5.20;2.15;;;11.00;99.90;;;;;;5022443;28;20234;-64
2021/10/22 00:32:43;;;;;;;8.75;2.95;;;11.00;99.90;;;;;;5022247;28;20229;-64
2021/10/22 00:35:11;;;;;;;8.68;3.83;;;11.00;99.90;;;;;;5029570;28;20309;-63
2021/10/22 00:37:38;;;;;;;7.35;4.10;;;11.00;99.90;;;;;;5014006;28;20233;-63
2021/10/22 00:40:06;;;;;;;12.82;6.63;;;11.00;99.90;;;;;;5025513;28;20230;-64
2021/10/22 00:42:33;;;;;;;7.38;3.15;;;11.00;99.90;;;;;;5023355;28;20227;-64
2021/10/22 00:45:03;;;;;;;7.60;2.97;;;11.00;99.90;;;;;;5018287;28;20238;-63
2021/10/22 00:47:30;;;;;;;9.15;3.42;;;11.00;99.90;;;;;;5028251;28;20542;-64
2021/10/22 00:49:57;;;;;;;5.85;2.75;;;10.90;99.90;;;;;;5014874;28;20228;-64
2021/10/22 00:52:28;;;;;;;12.43;10.13;;;10.90;99.90;;;;;;5021005;28;20234;-64
2021/10/22 00:54:57;;;;;;;9.45;2.83;;;10.90;99.90;;;;;;5027147;28;20222;-64
2021/10/22 00:57:24;;;;;;;8.27;4.35;;;10.90;99.90;;;;;;5025343;28;20247;-64
2021/10/22 00:59:51;;;;;;;9.43;3.65;;;10.90;99.90;;;;;;5027653;28;20238;-64
2021/10/22 01:02:18;;;;;;;5.95;2.88;;;10.90;99.90;;;;;;5022360;28;20236;-64
2021/10/22 01:04:45;;;;;;;10.90;5.00;;;10.90;99.90;;;;;;5029546;28;20227;-63
2021/10/22 01:07:15;;;;;;;8.88;3.33;;;10.90;99.90;;;;;;5015251;28;20231;-63
2021/10/22 01:09:47;;;;;;;8.85;4.90;;;10.90;99.90;;;;;;5019938;28;20734;-63
2021/10/22 01:12:15;;;;;;;10.27;5.28;;;10.90;99.90;;;;;;5023589;28;20309;-63
2021/10/22 01:14:42;;;;;;;7.80;4.00;;;10.80;99.90;;;;;;5014051;28;20242;-64
2021/10/22 01:17:33;;;;;;;13.40;4.05;;;10.80;99.90;;;;;;5028050;28;20250;-64
2021/10/22 01:20:00;;;;;;;11.45;3.28;;;10.80;99.90;;;;;;5023223;28;20229;-64
2021/10/22 01:22:29;;;;;;;11.25;5.10;;;10.70;99.90;;;;;;5012865;28;20242;-64
2021/10/22 01:24:56;;;;;;;10.80;3.28;;;10.70;99.70;;;;;;5022346;28;20254;-64
2021/10/22 01:27:24;;;;;;;10.27;3.33;;;10.70;99.90;;;;;;5013285;28;20239;-64
2021/10/22 01:29:51;;;;;;;11.63;3.40;;;10.70;99.90;;;;;;5018209;28;20383;-64
2021/10/22 01:32:19;;;;;;;12.95;4.57;;;10.70;99.90;;;;;;5026160;28;20248;-64
2021/10/22 01:34:45;;;;;;;10.60;4.80;;;10.60;99.90;;;;;;5017395;28;20556;-64
2021/10/22 01:37:12;;;;;;;7.70;2.80;;;10.60;99.90;;;;;;5028284;28;20241;-64
2021/10/22 01:39:41;;;;;;;10.77;4.57;;;10.60;99.90;;;;;;5019464;28;20238;-63
2021/10/22 01:42:08;;;;;;;15.65;3.88;;;10.70;99.90;;;;;;5026675;28;20226;-64
2021/10/22 01:44:35;;;;;;;8.23;3.58;;;10.60;99.90;;;;;;5023509;28;20260;-64
2021/10/22 01:47:02;;;;;;;9.68;4.03;;;10.60;99.80;;;;;;5033160;28;20237;-64
2021/10/22 01:49:29;;;;;;;10.23;3.60;;;10.60;99.90;;;;;;5019999;28;20243;-63
2021/10/22 01:51:56;;;;;;;6.45;3.30;;;10.50;99.90;;;;;;5019564;28;20230;-64
2021/10/22 01:54:23;;;;;;;10.75;3.28;;;10.50;99.90;;;;;;5019797;28;20234;-63
2021/10/22 01:56:51;;;;;;;14.05;3.92;;;10.60;99.90;;;;;;5018074;28;20232;-63
2021/10/22 01:59:18;;;;;;;12.48;4.32;;;10.60;99.90;;;;;;5030567;28;20740;-64
2021/10/22 02:01:45;;;;;;;9.38;3.40;;;10.60;99.90;;;;;;5013526;28;20230;-63
2021/10/22 02:04:12;;;;;;;6.82;3.00;;;10.50;99.90;;;;;;5022394;28;20249;-63
2021/10/22 02:06:39;;;;;;;6.75;2.85;;;10.60;99.90;;;;;;5025406;28;20226;-63
2021/10/22 02:09:06;;;;;;;6.35;3.20;;;10.60;99.90;;;;;;5025787;28;20307;-63
2021/10/22 02:11:33;;;;;;;8.20;3.92;;;10.50;99.90;;;;;;5012605;28;20238;-63
2021/10/22 02:14:02;;;;;;;9.95;3.63;;;10.60;99.90;;;;;;5009572;28;20238;-64
2021/10/22 02:16:28;;;;;;;4.65;3.05;;;10.60;99.90;;;;;;4993889;28;20258;-63
2021/10/22 02:18:55;;;;;;;7.00;2.85;;;10.60;99.90;;;;;;5008069;28;20230;-63
2021/10/22 02:21:22;;;;;;;10.60;4.07;;;10.60;99.90;;;;;;4994107;28;20731;-63
2021/10/22 02:23:50;;;;;;;10.32;3.45;;;10.60;99.90;;;;;;4997612;28;20227;-63
2021/10/22 02:26:17;;;;;;;9.40;3.05;;;10.60;99.90;;;;;;5005028;28;20675;-63
2021/10/22 02:28:44;;;;;;;8.80;4.18;;;10.60;99.90;;;;;;4995164;28;20238;-64
2021/10/22 02:31:12;;;;;;;5.65;3.15;;;10.60;99.90;;;;;;5005018;28;20265;-63
2021/10/22 02:33:39;;;;;;;10.63;3.00;;;10.60;99.90;;;;;;5002706;28;20473;-63
2021/10/22 02:36:06;;;;;;;5.05;2.95;;;10.60;99.90;;;;;;4994004;28;20227;-64
2021/10/22 02:38:33;;;;;;;10.52;4.20;;;10.60;99.90;;;;;;4993271;28;20234;-63
2021/10/22 02:41:00;;;;;;;9.13;3.90;;;10.60;99.90;;;;;;4993342;28;20226;-63
2021/10/22 02:43:27;;;;;;;11.35;4.25;;;10.60;99.90;;;;;;5002285;28;20217;-64
2021/10/22 02:45:54;;;;;;;11.88;4.57;;;10.60;99.90;;;;;;4993256;28;20541;-64
2021/10/22 02:48:22;;;;;;;9.10;4.32;;;10.60;99.90;;;;;;5000418;28;20227;-64
2021/10/22 02:50:50;;;;;;;10.20;3.75;;;10.60;99.90;;;;;;5006993;28;20246;-65
2021/10/22 02:53:17;;;;;;;9.10;3.22;;;10.60;99.90;;;;;;5001110;28;20672;-65
2021/10/22 02:55:44;;;;;;;9.23;3.22;;;10.70;99.90;;;;;;5007605;28;20217;-65
2021/10/22 02:58:11;;;;;;;9.38;3.92;;;10.70;99.80;;;;;;5004229;28;20247;-65
2021/10/22 03:00:38;;;;;;;15.82;4.90;;;10.70;99.80;;;;;;4993302;28;20589;-65
2021/10/22 03:03:05;;;;;;;9.23;3.22;;;10.70;99.90;;;;;;4992956;28;20223;-65
2021/10/22 03:05:33;;;;;;;7.07;2.90;;;10.70;99.90;;;;;;5007439;28;20230;-65
2021/10/22 03:08:01;;;;;;;11.77;3.67;;;10.70;99.90;;;;;;5001641;28;20921;-65
2021/10/22 03:10:28;;;;;;;7.15;3.60;;;10.70;99.90;;;;;;5012670;28;20690;-65
2021/10/22 03:12:55;;;;;;;6.85;3.03;;;10.70;99.90;;;;;;5018410;28;20288;-65
2021/10/22 03:15:22;;;;;;;11.95;3.65;;;10.80;99.90;;;;;;5030419;28;20237;-65
2021/10/22 03:17:49;;;;;;;7.60;3.50;;;10.80;99.90;;;;;;5020031;28;20230;-65
2021/10/22 03:20:16;;;;;;;5.18;2.60;;;10.90;99.80;;;;;;5018055;28;20246;-65
2021/10/22 03:22:44;;;;;;;7.50;3.15;;;10.80;99.70;;;;;;5012604;28;20242;-63
2021/10/22 03:25:11;;;;;;;9.73;3.42;;;10.80;99.70;;;;;;5012258;28;20215;-64
2021/10/22 03:27:38;;;;;;;6.53;2.75;;;10.80;99.60;;;;;;5012878;28;20254;-64
2021/10/22 03:30:06;;;;;;;10.85;3.50;;;10.80;99.60;;;;;;5013410;28;20226;-64
2021/10/22 03:32:33;;;;;;;8.93;4.40;;;10.70;99.80;;;;;;5032212;28;20298;-64
2021/10/22 03:35:00;;;;;;;11.90;3.97;;;10.70;99.70;;;;;;5014583;28;20270;-64
2021/10/22 03:37:27;;;;;;;8.98;4.03;;;10.70;99.60;;;;;;5012336;28;20237;-63
2021/10/22 03:39:56;;;;;;;9.20;3.38;;;10.70;99.70;;;;;;5012163;28;20248;-64
2021/10/22 03:42:23;;;;;;;10.70;4.03;;;10.70;99.70;;;;;;5016720;28;20222;-65
2021/10/22 03:44:50;;;;;;;5.60;2.45;;;10.70;99.60;;;;;;5012638;28;20238;-65
2021/10/22 03:47:18;;;;;;;21.42;9.50;;;10.70;99.70;;;;;;5012650;28;20217;-64
2021/10/22 03:49:45;;;;;;;12.38;3.88;;;10.70;99.90;;;;;;5028914;28;20294;-64
2021/10/22 03:52:11;;;;;;;7.68;2.95;;;10.70;99.80;;;;;;5024852;28;20576;-65
2021/10/22 03:54:38;;;;;;;7.60;3.20;;;10.70;99.80;;;;;;5022590;28;20229;-65
2021/10/22 03:57:07;;;;;;;8.60;3.28;;;10.70;99.70;;;;;;5031555;28;20230;-65
2021/10/22 03:59:34;;;;;;;8.80;3.47;;;10.70;99.70;;;;;;5018859;28;20597;-65
2021/10/22 04:02:00;;;;;;;7.80;2.60;;;10.70;99.70;;;;;;5023966;28;20232;-65
2021/10/22 04:04:29;;;;;;;11.13;3.10;;;10.70;99.80;;;;;;5015272;28;20692;-63
2021/10/22 04:06:57;;;;;;;7.55;3.20;;;10.70;99.80;;;;;;5020901;28;20228;-63
2021/10/22 04:09:26;;;;;;;12.30;3.70;;;10.70;99.90;;;;;;5018533;28;20254;-64
2021/10/22 04:11:54;;;;;;;7.45;3.70;;;10.70;99.90;;;;;;5019854;28;20958;-64
2021/10/22 04:14:22;;;;;;;7.55;2.92;;;10.70;99.90;;;;;;5018853;28;20242;-64
2021/10/22 04:16:49;;;;;;;7.93;4.22;;;10.70;99.90;;;;;;5015532;28;20229;-64
2021/10/22 04:19:16;;;;;;;10.90;3.38;;;10.70;99.90;;;;;;5017962;28;20782;-64
2021/10/22 04:21:44;;;;;;;6.80;2.58;;;10.70;99.90;;;;;;5023151;28;20234;-63
2021/10/22 04:24:11;;;;;;;10.02;3.47;;;10.60;99.90;;;;;;5030847;28;20229;-64
2021/10/22 04:26:38;;;;;;;9.82;4.03;;;10.60;99.90;;;;;;5023977;28;20226;-63
2021/10/22 04:29:05;;;;;;;10.30;4.07;;;10.70;99.90;;;;;;5028590;28;20705;-64
2021/10/22 04:31:33;;;;;;;5.85;3.83;;;10.60;99.90;;;;;;5027299;28;20236;-64
2021/10/22 04:34:00;;;;;;;8.02;3.10;;;10.60;99.90;;;;;;5028278;28;20218;-64
2021/10/22 04:36:27;;;;;;;5.57;2.65;;;10.60;99.90;;;;;;5021914;28;20244;-64
2021/10/22 04:41:38;;;;;;;16.20;7.78;;;10.60;99.90;;;;;;5028811;28;20225;-64
2021/10/22 04:44:05;;;;;;;12.60;5.18;;;10.60;99.90;;;;;;5024361;28;20628;-64
2021/10/22 04:46:33;;;;;;;9.15;2.90;;;10.60;99.90;;;;;;5028372;28;20229;-63
2021/10/22 04:49:01;;;;;;;4.97;1.98;;;10.60;99.90;;;;;;5033732;28;20563;-64
2021/10/22 04:51:27;;;;;;;8.73;3.35;;;10.60;99.90;;;;;;5034501;28;20224;-64
2021/10/22 04:53:54;;;;;;;6.25;2.30;;;10.60;99.90;;;;;;5020577;28;20232;-64
2021/10/22 04:56:22;;;;;;;7.88;2.75;;;10.70;99.90;;;;;;5031040;28;20225;-63
2021/10/22 04:58:49;;;;;;;5.60;2.78;;;10.70;99.90;;;;;;5028110;28;20227;-63
2021/10/22 05:01:16;;;;;;;8.73;4.10;;;10.60;99.90;;;;;;5026875;28;20548;-63
2021/10/22 05:03:44;;;;;;;7.95;4.15;;;10.60;99.80;;;;;;5019834;28;20571;-64
2021/10/22 05:06:11;;;;;;;14.18;5.22;;;10.70;99.90;;;;;;5027750;28;20231;-64
2021/10/22 05:08:39;;;;;;;6.95;3.22;;;10.70;99.90;;;;;;5021666;28;20259;-64
2021/10/22 05:11:06;;;;;;;7.35;3.10;;;10.70;99.80;;;;;;5021005;28;20569;-64
2021/10/22 05:13:33;;;;;;;7.50;2.90;;;10.70;99.70;;;;;;5028064;28;20223;-64
2021/10/22 05:16:00;;;;;;;9.65;3.40;;;10.70;99.80;;;;;;5013911;28;20225;-65
2021/10/22 05:18:28;;;;;;;7.28;3.78;;;10.70;99.80;;;;;;5014151;28;20237;-65
2021/10/22 05:20:56;;;;;;;10.32;5.53;;;10.70;99.70;;;;;;5014020;28;20242;-64
2021/10/22 05:23:23;;;;;;;9.98;3.30;;;10.70;99.80;;;;;;5014747;28;21004;-64
2021/10/22 05:25:50;;;;;;;9.48;2.83;;;10.70;99.90;;;;;;5034103;28;20242;-64
2021/10/22 05:28:17;;;;;;;12.43;6.45;;;10.70;99.80;;;;;;5034195;28;20229;-64
2021/10/22 05:30:44;;;;;;;12.60;5.55;;;10.70;99.80;;;;;;5034346;28;20278;-64
2021/10/22 05:33:12;;;;;;;12.80;6.53;;;10.70;99.80;;;;;;5021182;28;20237;-64
2021/10/22 05:35:39;;;;;;;9.27;5.20;;;10.70;99.90;;;;;;5016059;28;20246;-65
2021/10/22 05:38:07;;;;;;;11.65;3.22;;;10.70;99.90;;;;;;5014046;28;20249;-64
2021/10/22 05:40:35;;;;;;;6.75;4.72;;;10.70;99.90;;;;;;5027843;28;20225;-64
2021/10/22 05:43:03;;;;;;;13.52;3.72;;;10.60;99.90;;;;;;5024182;28;20360;-65
2021/10/22 05:45:30;;;;;;;7.05;2.45;;;10.60;99.90;;;;;;5021648;28;20229;-64
2021/10/22 05:47:57;;;;;;;8.70;3.28;;;10.60;99.80;;;;;;5014472;28;20678;-64
2021/10/22 05:50:25;;;;;;;9.05;3.70;;;10.60;99.90;;;;;;5014194;28;20349;-64
2021/10/22 05:52:52;;;;;;;7.35;2.97;;;10.60;99.90;;;;;;5014352;28;20227;-64
2021/10/22 05:55:21;;;;;;;11.63;4.68;;;10.60;99.90;;;;;;5013850;28;20241;-64
2021/10/22 05:57:48;;;;;;;17.85;9.95;;;10.60;99.80;;;;;;5014386;28;20242;-65
2021/10/22 06:00:15;;;;;;;6.70;3.85;;;10.60;99.90;;;;;;5013578;28;20243;-65
2021/10/22 06:02:42;;;;;;;8.23;3.00;;;10.60;99.90;;;;;;5014082;28;20229;-65
2021/10/22 06:05:10;;;;;;;9.82;3.63;;;10.50;99.90;;;;;;5013717;28;20373;-65
2021/10/22 06:07:37;;;;;;;15.70;4.55;;;10.50;99.90;;;;;;5013990;28;20218;-65
2021/10/22 06:10:05;;;;;;;14.68;2.92;;;10.50;99.90;;;;;;5013541;28;20242;-65
2021/10/22 06:12:33;;;;;;;13.02;5.35;;;10.60;99.90;;;;;;5014293;28;20230;-64
2021/10/22 06:15:00;;;;;;;16.92;6.25;;;10.60;99.90;;;;;;5013927;28;20237;-65
2021/10/22 06:17:27;;;;;;;6.45;3.58;;;10.60;99.90;;;;;;5013557;28;20222;-64
2021/10/22 06:19:57;;;;;;;7.43;3.40;;;10.70;99.90;;;;;;5014072;28;20234;-64
2021/10/22 06:22:38;;;;;;;14.98;6.57;;;10.70;99.90;;;;;;5013555;28;20224;-64
2021/10/22 06:25:06;;;;;;;10.43;4.30;;;10.70;99.90;;;;;;5025866;28;20327;-65
2021/10/22 06:27:35;;;;;;;6.30;2.60;;;10.70;99.70;;;;;;5033616;28;20223;-65
2021/10/22 06:30:02;;;;;;;8.02;3.63;;;10.80;99.70;;;;;;5033441;28;20235;-65
2021/10/22 06:32:29;;;;;;;8.13;3.75;;;10.80;99.60;;;;;;5032836;28;20215;-65
2021/10/22 06:34:56;;;;;;;8.50;3.58;;;10.80;99.60;;;;;;5033529;28;20222;-64
2021/10/22 06:37:23;;;;;;;6.30;3.03;;;10.80;99.40;;;;;;5032805;28;20248;-64
2021/10/22 06:39:50;;;;;;;10.70;4.95;;;10.80;99.30;;;;;;5033268;28;20223;-64
2021/10/22 06:42:17;;;;;;;7.95;4.38;;;10.80;99.30;;;;;;5028652;28;20538;-64
2021/10/22 06:44:45;;;;;;;12.13;4.88;;;10.90;99.10;;;;;;5027819;28;20227;-64
2021/10/22 06:47:12;;;;;;;9.68;4.82;;;10.90;98.90;;;;;;5032665;28;20232;-64
2021/10/22 06:49:39;;;;;;;11.45;4.90;;;10.90;98.90;;;;;;5033176;28;20576;-65
2021/10/22 06:52:06;;;;;;;8.93;4.18;;;10.90;98.90;;;;;;5032843;28;20238;-64
2021/10/22 06:54:33;;;;;;;7.57;4.97;;;11.00;98.90;;;;;;5032847;28;20221;-64
2021/10/22 06:57:01;;;;;;;7.05;3.72;;;11.00;98.90;;;;;;5033109;28;20230;-64
2021/10/22 06:59:28;;;;;;;5.57;3.08;;;11.10;98.70;;;;;;5032091;28;20676;-64
2021/10/22 07:01:56;;;;;;;17.90;11.32;;;11.10;98.40;;;;;;5033100;28;20229;-65
2021/10/22 07:04:23;;;;;;;9.82;2.47;;;11.00;98.40;;;;;;5032497;28;20687;-64
2021/10/22 07:09:34;;;;;;;5.45;2.58;;;11.00;98.40;;;;;;5032337;28;20312;-64
2021/10/22 07:12:02;;;;;;;5.65;3.55;;;11.10;98.40;;;;;;5032866;28;20224;-64
2021/10/22 07:14:32;;;;;;;7.13;4.45;;;11.10;98.30;;;;;;5032575;28;20278;-64
2021/10/22 07:17:00;;;;;;;6.97;2.30;;;11.20;98.40;;;;;;5032766;28;20289;-63
2021/10/22 07:19:27;;;;;;;6.85;2.97;;;11.20;98.10;;;;;;5032195;28;20240;-64
2021/10/22 07:21:59;;;;;;;4.93;2.50;;;11.20;97.90;;;;;;5032634;28;20237;-64
2021/10/22 07:24:26;;;;;;;7.93;3.22;;;11.20;98.10;;;;;;5031957;28;20267;-64
2021/10/22 07:26:53;;;;;;;9.73;2.58;;;11.30;98.10;;;;;;5032821;28;20225;-64
2021/10/22 07:29:20;;;;;;;8.20;2.08;;;11.30;98.00;;;;;;5032017;28;20240;-64
2021/10/22 07:31:47;;;;;;;6.85;2.30;;;11.30;97.80;;;;;;5032593;28;20313;-64
2021/10/22 07:34:20;;;;;;;5.40;2.47;;;11.30;97.80;;;;;;5032220;28;20232;-64
2021/10/22 07:36:47;;;;;;;9.05;3.35;;;11.30;97.60;;;;;;5032654;28;20615;-64
2021/10/22 07:39:15;;;;;;;11.13;3.80;;;11.30;97.60;;;;;;5031756;28;20697;-64
2021/10/22 07:41:41;;;;;;;5.10;2.45;;;11.30;97.60;;;;;;5032740;28;20231;-64
2021/10/22 07:44:08;;;;;;;5.55;3.15;;;11.30;97.70;;;;;;5023623;28;20239;-64
2021/10/22 07:46:35;;;;;;;6.40;3.17;;;11.30;97.80;;;;;;5016325;28;20547;-64
2021/10/22 07:49:02;;;;;;;10.88;4.20;;;11.30;97.50;;;;;;5016732;28;20224;-64
2021/10/22 07:51:30;;;;;;;10.68;3.50;;;11.30;97.50;;;;;;5016186;28;20236;-66
2021/10/22 07:53:57;;;;;;;12.65;5.05;;;11.40;97.60;;;;;;5016601;28;20227;-65
2021/10/22 07:56:24;;;;;;;13.25;2.30;;;11.40;97.60;;;;;;5016280;28;20222;-64
2021/10/22 07:58:51;;;;;;;10.60;2.63;;;11.40;97.40;;;;;;5016078;28;20552;-64
2021/10/22 08:01:19;;;;;;;8.55;2.78;;;11.50;97.50;;;;;;5015901;28;20687;-64
2021/10/22 08:03:46;;;;;;;5.45;2.15;;;11.50;97.40;;;;;;5016521;28;20223;-64
2021/10/22 08:06:14;;;;;;;4.70;2.42;;;11.50;97.30;;;;;;5015938;28;20228;-64
2021/10/22 08:08:43;;;;;;;7.80;3.58;;;11.50;97.20;;;;;;5016022;28;20686;-64
2021/10/22 08:11:10;;;;;;;6.70;2.35;;;11.50;97.20;;;;;;5016468;28;20227;-65
2021/10/22 08:13:37;;;;;;;5.43;3.35;;;11.50;97.10;;;;;;5015767;28;20239;-64
2021/10/22 08:16:05;;;;;;;7.93;2.40;;;11.50;97.00;;;;;;5016174;28;20231;-64
2021/10/22 08:18:32;;;;;;;12.23;3.75;;;11.50;96.80;;;;;;5015748;28;20315;-65
2021/10/22 08:21:02;;;;;;;6.03;2.70;;;11.40;96.80;;;;;;5019948;28;20225;-64
2021/10/22 08:23:29;;;;;;;7.97;2.20;;;11.50;97.00;;;;;;5035207;28;20226;-64
2021/10/22 08:25:57;;;;;;;6.05;2.90;;;11.50;96.80;;;;;;5035802;28;20226;-64
2021/10/22 08:28:24;;;;;;;5.22;3.55;;;11.50;97.00;;;;;;5035268;28;20223;-64
2021/10/22 08:30:56;;;;;;;5.22;2.05;;;11.50;97.00;;;;;;5035746;28;20236;-64
2021/10/22 08:33:24;;;;;;;7.28;2.83;;;11.50;96.60;;;;;;5035380;28;20591;-64
2021/10/22 08:35:51;;;;;;;5.85;2.63;;;11.50;96.80;;;;;;5035491;28;20230;-64
2021/10/22 08:38:18;;;;;;;7.43;3.05;;;11.50;96.70;;;;;;5035006;28;20314;-63
2021/10/22 08:40:45;;;;;;;5.05;2.25;;;11.50;96.60;;;;;;5035316;28;20228;-63
2021/10/22 08:43:13;;;;;;;7.30;2.30;;;11.50;96.60;;;;;;5025701;28;20732;-63
2021/10/22 08:45:41;;;;;;;4.38;2.33;;;11.50;96.70;;;;;;5035030;28;20231;-64
2021/10/22 08:48:09;;;;;;;3.95;2.28;;;11.40;96.40;;;;;;5035313;28;20224;-63
2021/10/22 08:50:37;;;;;;;12.48;3.33;;;11.40;96.50;;;;;;5034967;28;20289;-64
2021/10/22 08:53:04;;;;;;;7.45;2.40;;;11.40;96.70;;;;;;5035267;28;20639;-64
2021/10/22 08:55:31;;;;;;;6.20;2.75;;;11.40;96.80;;;;;;5034326;28;20548;-64
2021/10/22 08:58:00;;;;;;;11.20;2.65;;;11.50;96.80;;;;;;5035336;28;20222;-64
2021/10/22 09:00:28;;;;;;;7.32;2.75;;;11.60;96.80;;;;;;5034289;28;20224;-65
2021/10/22 09:03:09;;;;;;;8.48;3.42;;;11.60;96.70;;;;;;5035210;28;20236;-62
2021/10/22 09:05:36;;;;;;;6.40;2.80;;;11.60;96.50;;;;;;5034797;28;20228;-63
2021/10/22 09:08:05;;;;;;;8.35;3.00;;;11.60;96.60;;;;;;5034956;28;20282;-62
2021/10/22 09:10:35;;;;;;;7.93;3.00;;;11.70;96.60;;;;;;5034530;28;20625;-62
2021/10/22 09:13:06;;;;;;;7.22;3.00;;;11.70;96.50;;;;;;5035069;28;20244;-62
2021/10/22 09:15:39;;;;;;;18.05;4.40;;;11.70;96.20;;;;;;5034640;28;20255;-62
2021/10/22 09:18:17;;;;;;;10.48;4.55;;;11.80;96.40;;;;;;5034787;28;20312;-62
2021/10/22 09:20:52;;;;;;;5.03;3.13;;;11.80;96.20;;;;;;5032678;28;20217;-62
2021/10/22 09:23:25;;;;;;;6.75;3.25;;;11.90;96.40;;;;;;5014902;28;20232;-62
2021/10/22 09:25:52;;;;;;;6.07;3.10;;;11.90;96.30;;;;;;5014700;28;20246;-62
2021/10/22 09:28:27;;;;;;;11.40;2.40;;;12.00;96.50;;;;;;5014782;28;20233;-62
2021/10/22 09:30:55;;;;;;;6.28;2.45;;;12.10;96.00;;;;;;5014610;28;20225;-63
2021/10/22 09:33:23;;;;;;;7.55;2.60;;;12.00;95.80;;;;;;5014294;28;20584;-62
2021/10/22 09:35:53;;;;;;;6.75;2.13;;;12.00;96.00;;;;;;5015717;28;20228;-62
2021/10/22 09:38:23;;;;;;;5.55;2.13;;;11.90;96.00;;;;;;5034436;28;20221;-62
2021/10/22 09:40:53;;;;;;;6.40;3.22;;;11.90;96.30;;;;;;5033792;28;20240;-62
2021/10/22 09:43:26;;;;;;;10.40;4.40;;;11.90;96.40;;;;;;5024385;28;20687;-63
2021/10/22 09:46:10;;;;;;;15.85;5.70;;;11.80;96.20;;;;;;5033969;28;20233;-63
2021/10/22 09:48:37;;;;;;;6.88;3.83;;;11.80;96.50;;;;;;5033698;28;20236;-63
2021/10/22 09:51:28;;;;;;;7.80;3.65;;;11.80;96.70;;;;;;5034142;28;20278;-63
2021/10/22 09:53:58;;;;;;;7.88;2.72;;;11.90;96.90;;;;;;5034101;28;20227;-63
2021/10/22 09:56:26;;;;;;;4.78;2.97;;;11.90;96.90;;;;;;5034275;28;20249;-63
2021/10/22 09:59:02;;;;;;;3.95;2.67;;;11.90;96.80;;;;;;5033375;28;20236;-63
2021/10/22 10:01:32;;;;;;;4.57;2.50;;;11.90;96.80;;;;;;5034076;28;20229;-63
2021/10/22 10:04:00;;;;;;;6.03;2.95;;;12.00;96.70;;;;;;5033806;28;20228;-63
2021/10/22 10:06:29;;;;;;;6.05;2.67;;;12.10;96.70;;;;;;5033437;28;20233;-63
2021/10/22 10:08:56;;;;;;;7.75;2.80;;;12.10;96.60;;;;;;5033438;28;20236;-63
2021/10/22 10:11:25;;;;;;;4.47;2.60;;;12.10;96.60;;;;;;5034054;28;20752;-63
2021/10/22 10:13:52;;;;;;;3.67;2.30;;;12.20;96.80;;;;;;5033289;28;20224;-65
2021/10/22 10:16:19;;;;;;;4.63;2.30;;;12.20;96.90;;;;;;5033900;28;20305;-63
2021/10/22 10:18:53;;;;;;;6.85;2.78;;;12.20;96.80;;;;;;5033358;28;20232;-63
2021/10/22 10:21:22;;;;;;;5.13;3.00;;;12.30;96.80;;;;;;5026839;28;20231;-63
2021/10/22 10:23:51;;;;;;;8.43;3.92;;;12.30;96.60;;;;;;5032711;28;20225;-62
2021/10/22 10:26:24;;;;;;;9.82;3.30;;;12.30;96.50;;;;;;5009958;28;20295;-62
2021/10/22 10:28:52;;;;;;;8.10;3.53;;;12.30;96.30;;;;;;4994032;28;20241;-63
2021/10/22 10:31:40;;;;;;;5.55;2.63;;;12.20;96.30;;;;;;4993824;28;20234;-62
2021/10/22 10:34:39;;;;;;;5.47;2.33;;;12.20;96.30;;;;;;5016691;28;20963;-62
2021/10/22 10:37:19;;;;;;;3.72;2.13;;;12.20;96.40;;;;;;5029122;28;20233;-62
2021/10/22 10:39:57;;;;;;;6.97;2.85;;;12.30;96.50;;;;;;5032810;28;20228;-63
2021/10/22 10:42:28;;;;;;;9.85;4.95;;;12.30;96.60;;;;;;5033208;28;20216;-63
2021/10/22 10:44:56;;;;;;;10.57;4.07;;;12.30;96.40;;;;;;5016545;28;20226;-62
2021/10/22 10:47:42;;;;;;;6.63;4.97;;;12.30;96.60;;;;;;5013465;28;20229;-63
2021/10/22 10:50:12;;;;;;;7.60;3.80;;;12.40;96.70;;;;;;5013160;28;21050;-63
2021/10/22 10:52:54;;;;;;;6.78;3.83;;;12.50;96.60;;;;;;5013345;28;20246;-63
2021/10/22 10:55:30;;;;;;;6.90;3.88;;;12.40;96.80;;;;;;5013522;28;20235;-63
2021/10/22 10:58:13;;;;;;;7.22;3.13;;;12.40;96.40;;;;;;5013080;28;20223;-63
2021/10/22 11:00:45;;;;;;;5.35;1.98;;;12.40;96.60;;;;;;5012618;28;20880;-63
2021/10/22 11:03:17;;;;;;;8.43;2.78;;;12.30;96.50;;;;;;5013149;28;20260;-63
2021/10/22 11:06:33;;;;;;;9.32;2.47;;;12.30;96.60;;;;;;5012914;28;20228;-62
2021/10/22 11:09:03;;;;;;;4.97;2.78;;;12.30;96.80;;;;;;5012662;28;20302;-63
2021/10/22 11:11:36;;;;;;;5.13;2.30;;;12.20;96.70;;;;;;5013021;28;20252;-63
2021/10/22 11:14:21;;;;;;;16.77;3.00;;;12.30;96.90;;;;;;5012553;28;20999;-63
2021/10/22 11:16:50;;;;;;;4.38;2.70;;;12.30;96.80;;;;;;5012539;28;20231;-62
2021/10/22 11:19:19;;;;;;;7.05;3.63;;;12.30;96.90;;;;;;5012221;28;20233;-63
2021/10/22 11:21:48;;;;;;;6.13;2.70;;;12.40;96.90;;;;;;5012447;28;20233;-62
2021/10/22 11:24:18;;;;;;;5.00;2.35;;;12.50;96.80;;;;;;5012884;28;20283;-62
2021/10/22 11:26:46;;;;;;;6.60;3.30;;;12.40;96.40;;;;;;5012413;28;20568;-62
2021/10/22 11:29:16;;;;;;;5.53;2.03;;;12.50;96.30;;;;;;5012635;28;20226;-62
2021/10/22 11:31:45;;;;;;;7.45;2.35;;;12.50;96.30;;;;;;5012355;28;20240;-62
2021/10/22 11:34:17;;;;;;;7.63;2.95;;;12.60;96.10;;;;;;5027100;28;20295;-63
2021/10/22 11:36:51;;;;;;;8.18;2.53;;;12.50;96.20;;;;;;5032057;28;20610;-62
2021/10/22 11:39:22;;;;;;;5.78;2.30;;;12.50;95.90;;;;;;5032259;28;20222;-62
2021/10/22 11:42:09;;;;;;;4.10;1.90;;;12.50;96.00;;;;;;5031321;28;20250;-63
2021/10/22 11:44:37;;;;;;;5.55;2.25;;;12.50;95.90;;;;;;5026236;28;20229;-63
2021/10/22 11:47:05;;;;;;;5.05;2.65;;;12.50;96.00;;;;;;5031860;28;20292;-63
2021/10/22 11:49:36;;;;;;;4.13;1.67;;;12.40;95.80;;;;;;5032395;28;20366;-63
2021/10/22 11:52:04;;;;;;;9.45;3.05;;;12.50;95.70;;;;;;5031966;28;20229;-63
2021/10/22 11:54:34;;;;;;;8.48;2.65;;;12.50;95.50;;;;;;5032222;28;20228;-63
2021/10/22 11:57:04;;;;;;;16.40;8.85;;;12.50;95.60;;;;;;5032145;28;20240;-63
2021/10/22 11:59:33;;;;;;;5.70;3.20;;;12.50;95.50;;;;;;5032010;28;20247;-63
2021/10/22 12:02:05;;;;;;;7.85;3.35;;;12.50;95.50;;;;;;5031735;28;20228;-63
2021/10/22 12:04:33;;;;;;;6.43;3.10;;;12.60;95.50;;;;;;5032206;28;20240;-63
2021/10/22 12:07:05;;;;;;;12.30;5.00;;;12.60;95.60;;;;;;5031744;28;20275;-63
2021/10/22 12:09:36;;;;;;;5.93;2.83;;;12.70;95.60;;;;;;5031825;28;20229;-63
2021/10/22 12:12:06;;;;;;;4.05;2.90;;;12.70;95.30;;;;;;5031537;28;20225;-63
2021/10/22 12:14:39;;;;;;;6.13;2.40;;;12.80;95.40;;;;;;5023346;28;20580;-63
2021/10/22 12:17:07;;;;;;;3.83;1.80;;;12.80;95.40;;;;;;5028458;28;20266;-63
2021/10/22 12:19:34;;;;;;;9.82;3.45;;;12.80;95.70;;;;;;5031161;28;20244;-63
2021/10/22 12:22:01;;;;;;;7.30;2.55;;;12.70;95.20;;;;;;5027552;28;20218;-63
2021/10/22 12:24:41;;;;;;;5.07;2.13;;;12.80;95.40;;;;;;5030573;28;20867;-63
2021/10/22 12:27:08;;;;;;;6.22;3.00;;;12.80;95.50;;;;;;5031906;28;20778;-63
2021/10/22 12:29:57;;;;;;;5.70;2.50;;;12.70;95.50;;;;;;5033243;28;20230;-63
2021/10/22 12:32:29;;;;;;;10.23;3.90;;;12.70;95.50;;;;;;5035700;28;20229;-63
2021/10/22 12:34:56;;;;;;;6.07;2.20;;;12.80;95.90;;;;;;5035836;28;20674;-63
2021/10/22 12:37:35;;;;;;;5.53;3.00;;;12.70;95.70;;;;;;5027326;28;20226;-63
2021/10/22 12:40:13;;;;;;;4.10;2.60;;;12.80;95.90;;;;;;5015757;28;20722;-63
2021/10/22 12:42:41;;;;;;;11.57;3.80;;;12.80;95.70;;;;;;5008660;28;20555;-63
2021/10/22 12:45:18;;;;;;;3.53;2.05;;;12.80;95.70;;;;;;5013469;28;20253;-64
2021/10/22 12:47:47;;;;;;;7.78;2.95;;;12.90;95.80;;;;;;5015121;28;20232;-63
2021/10/22 12:50:17;;;;;;;6.00;2.90;;;12.90;96.00;;;;;;5015478;28;20284;-63
2021/10/22 12:52:58;;;;;;;6.63;2.47;;;12.90;96.00;;;;;;5015643;28;20226;-63
2021/10/22 12:55:28;;;;;;;4.28;1.90;;;12.90;96.10;;;;;;5015756;28;20218;-63
2021/10/22 12:58:14;;;;;;;3.10;1.90;;;12.90;96.00;;;;;;5015165;28;20246;-63